sensor_id;sensor_type;location;lat;lon;timestamp;P1;durP1;ratioP1;P2;durP2;ratioP2
15049;SDS011;7622;42.724;23.250;2022-07-23T00:00:20;6.90;;;6.20;;
15049;SDS011;7622;42.724;23.250;2022-07-23T00:02:47;11.90;;;6.40;;
15049;SDS011;7622;42.724;23.250;2022-07-23T00:05:14;9.97;;;6.33;;
15049;SDS011;7622;42.724;23.250;2022-07-23T00:07:42;7.93;;;6.87;;
15049;SDS011;7622;42.724;23.250;2022-07-23T00:10:09;7.23;;;6.53;;
15049;SDS011;7622;42.724;23.250;2022-07-23T00:12:36;7.00;;;6.37;;
15049;SDS011;7622;42.724;23.250;2022-07-23T00:15:04;11.90;;;7.00;;
15049;SDS011;7622;42.724;23.250;2022-07-23T00:17:32;7.10;;;6.40;;
15049;SDS011;7622;42.724;23.250;2022-07-23T00:19:59;8.63;;;6.90;;
15049;SDS011;7622;42.724;23.250;2022-07-23T00:22:26;8.90;;;6.57;;
15049;SDS011;7622;42.724;23.250;2022-07-23T00:24:55;11.27;;;6.33;;
15049;SDS011;7622;42.724;23.250;2022-07-23T00:27:23;7.73;;;6.90;;
15049;SDS011;7622;42.724;23.250;2022-07-23T00:29:53;6.57;;;5.80;;
15049;SDS011;7622;42.724;23.250;2022-07-23T00:32:22;6.87;;;6.23;;
15049;SDS011;7622;42.724;23.250;2022-07-23T00:34:49;7.60;;;6.40;;
15049;SDS011;7622;42.724;23.250;2022-07-23T00:37:15;7.40;;;6.63;;
15049;SDS011;7622;42.724;23.250;2022-07-23T00:39:42;8.40;;;5.90;;
15049;SDS011;7622;42.724;23.250;2022-07-23T00:42:10;6.60;;;6.03;;
15049;SDS011;7622;42.724;23.250;2022-07-23T00:44:37;7.03;;;6.33;;
15049;SDS011;7622;42.724;23.250;2022-07-23T00:47:04;7.07;;;6.33;;
15049;SDS011;7622;42.724;23.250;2022-07-23T00:49:31;8.90;;;6.53;;
15049;SDS011;7622;42.724;23.250;2022-07-23T00:51:59;7.60;;;6.73;;
15049;SDS011;7622;42.724;23.250;2022-07-23T00:54:27;8.03;;;7.20;;
15049;SDS011;7622;42.724;23.250;2022-07-23T00:56:55;8.57;;;6.77;;
15049;SDS011;7622;42.724;23.250;2022-07-23T00:59:23;7.73;;;6.57;;
15049;SDS011;7622;42.724;23.250;2022-07-23T01:01:50;11.03;;;7.03;;
15049;SDS011;7622;42.724;23.250;2022-07-23T01:04:17;11.57;;;6.97;;
15049;SDS011;7622;42.724;23.250;2022-07-23T01:06:44;8.00;;;5.97;;
15049;SDS011;7622;42.724;23.250;2022-07-23T01:09:11;9.73;;;7.07;;
15049;SDS011;7622;42.724;23.250;2022-07-23T01:11:38;9.20;;;7.33;;
15049;SDS011;7622;42.724;23.250;2022-07-23T01:14:10;8.00;;;7.20;;
15049;SDS011;7622;42.724;23.250;2022-07-23T01:16:40;9.27;;;6.70;;
15049;SDS011;7622;42.724;23.250;2022-07-23T01:19:08;8.93;;;6.47;;
15049;SDS011;7622;42.724;23.250;2022-07-23T01:21:35;6.23;;;5.73;;
15049;SDS011;7622;42.724;23.250;2022-07-23T01:24:07;7.43;;;6.57;;
15049;SDS011;7622;42.724;23.250;2022-07-23T01:26:35;8.70;;;6.43;;
15049;SDS011;7622;42.724;23.250;2022-07-23T01:29:02;7.23;;;6.53;;
15049;SDS011;7622;42.724;23.250;2022-07-23T01:31:29;8.13;;;6.00;;
15049;SDS011;7622;42.724;23.250;2022-07-23T01:33:56;13.87;;;6.90;;
15049;SDS011;7622;42.724;23.250;2022-07-23T01:36:23;18.00;;;7.90;;
15049;SDS011;7622;42.724;23.250;2022-07-23T01:38:50;9.47;;;7.10;;
15049;SDS011;7622;42.724;23.250;2022-07-23T01:41:18;15.53;;;8.43;;
15049;SDS011;7622;42.724;23.250;2022-07-23T01:43:45;12.80;;;8.60;;
15049;SDS011;7622;42.724;23.250;2022-07-23T01:46:12;12.77;;;8.37;;
15049;SDS011;7622;42.724;23.250;2022-07-23T01:48:39;17.93;;;8.70;;
15049;SDS011;7622;42.724;23.250;2022-07-23T01:51:06;10.47;;;7.60;;
15049;SDS011;7622;42.724;23.250;2022-07-23T01:53:33;11.13;;;7.90;;
15049;SDS011;7622;42.724;23.250;2022-07-23T01:56:00;9.30;;;7.63;;
15049;SDS011;7622;42.724;23.250;2022-07-23T01:58:28;7.93;;;6.87;;
15049;SDS011;7622;42.724;23.250;2022-07-23T02:00:55;8.77;;;6.93;;
15049;SDS011;7622;42.724;23.250;2022-07-23T02:03:22;8.77;;;5.87;;
15049;SDS011;7622;42.724;23.250;2022-07-23T02:05:50;12.33;;;6.93;;
15049;SDS011;7622;42.724;23.250;2022-07-23T02:08:17;7.53;;;6.70;;
15049;SDS011;7622;42.724;23.250;2022-07-23T02:10:43;7.07;;;6.47;;
15049;SDS011;7622;42.724;23.250;2022-07-23T02:13:11;8.23;;;7.03;;
15049;SDS011;7622;42.724;23.250;2022-07-23T02:15:39;7.87;;;7.07;;
15049;SDS011;7622;42.724;23.250;2022-07-23T02:18:06;10.87;;;6.80;;
15049;SDS011;7622;42.724;23.250;2022-07-23T02:20:33;7.83;;;7.07;;
15049;SDS011;7622;42.724;23.250;2022-07-23T02:23:00;7.67;;;6.97;;
15049;SDS011;7622;42.724;23.250;2022-07-23T02:25:27;11.20;;;7.70;;
15049;SDS011;7622;42.724;23.250;2022-07-23T02:27:54;10.53;;;7.07;;
15049;SDS011;7622;42.724;23.250;2022-07-23T02:30:20;10.83;;;7.70;;
15049;SDS011;7622;42.724;23.250;2022-07-23T02:32:48;11.17;;;7.30;;
15049;SDS011;7622;42.724;23.250;2022-07-23T02:35:15;8.33;;;7.47;;
15049;SDS011;7622;42.724;23.250;2022-07-23T02:37:42;12.70;;;7.60;;
15049;SDS011;7622;42.724;23.250;2022-07-23T02:40:09;8.83;;;7.03;;
15049;SDS011;7622;42.724;23.250;2022-07-23T02:42:37;9.23;;;6.60;;
15049;SDS011;7622;42.724;23.250;2022-07-23T02:45:04;7.40;;;6.57;;
15049;SDS011;7622;42.724;23.250;2022-07-23T02:47:31;7.47;;;6.83;;
15049;SDS011;7622;42.724;23.250;2022-07-23T02:49:59;8.87;;;6.63;;
15049;SDS011;7622;42.724;23.250;2022-07-23T02:52:26;11.43;;;6.70;;
15049;SDS011;7622;42.724;23.250;2022-07-23T02:54:52;8.40;;;6.60;;
15049;SDS011;7622;42.724;23.250;2022-07-23T02:57:19;8.77;;;6.63;;
15049;SDS011;7622;42.724;23.250;2022-07-23T02:59:46;9.27;;;6.90;;
15049;SDS011;7622;42.724;23.250;2022-07-23T03:02:13;10.93;;;6.70;;
15049;SDS011;7622;42.724;23.250;2022-07-23T03:04:39;10.47;;;6.50;;
15049;SDS011;7622;42.724;23.250;2022-07-23T03:07:08;8.67;;;6.57;;
15049;SDS011;7622;42.724;23.250;2022-07-23T03:09:35;6.80;;;6.23;;
15049;SDS011;7622;42.724;23.250;2022-07-23T03:12:02;10.10;;;6.97;;
15049;SDS011;7622;42.724;23.250;2022-07-23T03:14:29;7.90;;;6.67;;
15049;SDS011;7622;42.724;23.250;2022-07-23T03:16:56;10.00;;;8.33;;
15049;SDS011;7622;42.724;23.250;2022-07-23T03:19:24;12.20;;;9.17;;
15049;SDS011;7622;42.724;23.250;2022-07-23T03:21:51;10.23;;;9.33;;
15049;SDS011;7622;42.724;23.250;2022-07-23T03:24:20;11.20;;;10.23;;
15049;SDS011;7622;42.724;23.250;2022-07-23T03:26:48;14.23;;;9.73;;
15049;SDS011;7622;42.724;23.250;2022-07-23T03:29:15;13.53;;;9.70;;
15049;SDS011;7622;42.724;23.250;2022-07-23T03:31:42;13.37;;;9.00;;
15049;SDS011;7622;42.724;23.250;2022-07-23T03:34:09;9.20;;;8.13;;
15049;SDS011;7622;42.724;23.250;2022-07-23T03:36:35;10.67;;;8.10;;
15049;SDS011;7622;42.724;23.250;2022-07-23T03:39:02;8.47;;;7.77;;
15049;SDS011;7622;42.724;23.250;2022-07-23T03:41:30;10.13;;;7.57;;
15049;SDS011;7622;42.724;23.250;2022-07-23T03:43:57;12.13;;;7.47;;
15049;SDS011;7622;42.724;23.250;2022-07-23T03:46:24;8.80;;;6.93;;
15049;SDS011;7622;42.724;23.250;2022-07-23T03:48:51;10.83;;;7.77;;
15049;SDS011;7622;42.724;23.250;2022-07-23T03:51:17;10.10;;;7.40;;
15049;SDS011;7622;42.724;23.250;2022-07-23T03:53:44;7.80;;;7.07;;
15049;SDS011;7622;42.724;23.250;2022-07-23T03:56:11;12.50;;;8.87;;
15049;SDS011;7622;42.724;23.250;2022-07-23T03:58:39;13.43;;;7.90;;
15049;SDS011;7622;42.724;23.250;2022-07-23T04:01:06;10.90;;;6.90;;
15049;SDS011;7622;42.724;23.250;2022-07-23T04:03:33;14.77;;;8.20;;
15049;SDS011;7622;42.724;23.250;2022-07-23T04:05:59;10.57;;;7.17;;
15049;SDS011;7622;42.724;23.250;2022-07-23T04:08:26;7.07;;;6.43;;
15049;SDS011;7622;42.724;23.250;2022-07-23T04:10:53;9.87;;;7.17;;
15049;SDS011;7622;42.724;23.250;2022-07-23T04:13:20;7.83;;;7.10;;
15049;SDS011;7622;42.724;23.250;2022-07-23T04:15:48;12.20;;;7.17;;
15049;SDS011;7622;42.724;23.250;2022-07-23T04:18:15;7.50;;;6.90;;
15049;SDS011;7622;42.724;23.250;2022-07-23T04:20:43;8.10;;;7.40;;
15049;SDS011;7622;42.724;23.250;2022-07-23T04:23:10;8.57;;;6.90;;
15049;SDS011;7622;42.724;23.250;2022-07-23T04:25:37;8.20;;;6.17;;
15049;SDS011;7622;42.724;23.250;2022-07-23T04:28:04;9.30;;;6.90;;
15049;SDS011;7622;42.724;23.250;2022-07-23T04:30:31;9.20;;;6.63;;
15049;SDS011;7622;42.724;23.250;2022-07-23T04:32:59;8.23;;;6.90;;
15049;SDS011;7622;42.724;23.250;2022-07-23T04:35:26;26.13;;;6.57;;
15049;SDS011;7622;42.724;23.250;2022-07-23T04:37:52;13.30;;;6.97;;
15049;SDS011;7622;42.724;23.250;2022-07-23T04:40:19;10.37;;;6.43;;
15049;SDS011;7622;42.724;23.250;2022-07-23T04:42:46;13.50;;;9.37;;
15049;SDS011;7622;42.724;23.250;2022-07-23T04:45:13;10.67;;;8.87;;
15049;SDS011;7622;42.724;23.250;2022-07-23T04:47:39;7.80;;;6.87;;
15049;SDS011;7622;42.724;23.250;2022-07-23T04:50:08;8.70;;;7.93;;
15049;SDS011;7622;42.724;23.250;2022-07-23T04:52:35;8.10;;;7.27;;
15049;SDS011;7622;42.724;23.250;2022-07-23T04:55:02;10.27;;;7.07;;
15049;SDS011;7622;42.724;23.250;2022-07-23T04:57:29;7.40;;;6.00;;
15049;SDS011;7622;42.724;23.250;2022-07-23T04:59:56;9.60;;;6.97;;
15049;SDS011;7622;42.724;23.250;2022-07-23T05:02:22;7.10;;;5.83;;
15049;SDS011;7622;42.724;23.250;2022-07-23T05:04:49;6.80;;;6.10;;
15049;SDS011;7622;42.724;23.250;2022-07-23T05:07:17;12.07;;;6.60;;
15049;SDS011;7622;42.724;23.250;2022-07-23T05:09:44;10.77;;;7.90;;
15049;SDS011;7622;42.724;23.250;2022-07-23T05:12:11;26.33;;;7.20;;
15049;SDS011;7622;42.724;23.250;2022-07-23T05:14:37;10.33;;;6.70;;
15049;SDS011;7622;42.724;23.250;2022-07-23T05:17:05;13.60;;;6.83;;
15049;SDS011;7622;42.724;23.250;2022-07-23T05:19:33;9.37;;;6.43;;
15049;SDS011;7622;42.724;23.250;2022-07-23T05:22:00;7.43;;;6.43;;
15049;SDS011;7622;42.724;23.250;2022-07-23T05:24:28;9.63;;;7.00;;
15049;SDS011;7622;42.724;23.250;2022-07-23T05:26:54;9.77;;;6.88;;
15049;SDS011;7622;42.724;23.250;2022-07-23T05:29:21;9.95;;;6.75;;
15049;SDS011;7622;42.724;23.250;2022-07-23T05:31:48;11.63;;;7.07;;
15049;SDS011;7622;42.724;23.250;2022-07-23T05:34:15;8.80;;;7.00;;
15049;SDS011;7622;42.724;23.250;2022-07-23T05:36:41;10.07;;;6.93;;
15049;SDS011;7622;42.724;23.250;2022-07-23T05:39:08;11.55;;;7.63;;
15049;SDS011;7622;42.724;23.250;2022-07-23T05:41:36;7.63;;;6.93;;
15049;SDS011;7622;42.724;23.250;2022-07-23T05:44:03;8.48;;;7.28;;
15049;SDS011;7622;42.724;23.250;2022-07-23T05:46:30;10.63;;;6.78;;
15049;SDS011;7622;42.724;23.250;2022-07-23T05:48:57;11.32;;;7.10;;
15049;SDS011;7622;42.724;23.250;2022-07-23T05:51:24;8.38;;;7.10;;
15049;SDS011;7622;42.724;23.250;2022-07-23T05:53:51;10.50;;;7.82;;
15049;SDS011;7622;42.724;23.250;2022-07-23T05:56:18;9.30;;;7.20;;
15049;SDS011;7622;42.724;23.250;2022-07-23T05:58:47;7.85;;;7.07;;
15049;SDS011;7622;42.724;23.250;2022-07-23T06:01:14;9.20;;;7.95;;
15049;SDS011;7622;42.724;23.250;2022-07-23T06:03:40;10.68;;;8.25;;
15049;SDS011;7622;42.724;23.250;2022-07-23T06:06:07;12.93;;;8.02;;
15049;SDS011;7622;42.724;23.250;2022-07-23T06:08:34;8.70;;;7.80;;
15049;SDS011;7622;42.724;23.250;2022-07-23T06:11:01;12.98;;;8.40;;
15049;SDS011;7622;42.724;23.250;2022-07-23T06:13:27;13.15;;;8.93;;
15049;SDS011;7622;42.724;23.250;2022-07-23T06:15:56;11.20;;;9.00;;
15049;SDS011;7622;42.724;23.250;2022-07-23T06:18:23;16.42;;;8.88;;
15049;SDS011;7622;42.724;23.250;2022-07-23T06:20:50;12.45;;;8.45;;
15049;SDS011;7622;42.724;23.250;2022-07-23T06:23:17;9.38;;;7.47;;
15049;SDS011;7622;42.724;23.250;2022-07-23T06:25:43;10.90;;;8.65;;
15049;SDS011;7622;42.724;23.250;2022-07-23T06:28:10;14.07;;;9.50;;
15049;SDS011;7622;42.724;23.250;2022-07-23T06:30:37;10.65;;;8.40;;
15049;SDS011;7622;42.724;23.250;2022-07-23T06:33:05;11.93;;;8.98;;
15049;SDS011;7622;42.724;23.250;2022-07-23T06:35:32;14.40;;;8.30;;
15049;SDS011;7622;42.724;23.250;2022-07-23T06:37:59;12.60;;;7.80;;
15049;SDS011;7622;42.724;23.250;2022-07-23T06:40:26;13.13;;;7.95;;
15049;SDS011;7622;42.724;23.250;2022-07-23T06:42:53;12.27;;;8.95;;
15049;SDS011;7622;42.724;23.250;2022-07-23T06:45:20;9.32;;;8.15;;
15049;SDS011;7622;42.724;23.250;2022-07-23T06:47:47;9.43;;;8.05;;
15049;SDS011;7622;42.724;23.250;2022-07-23T06:50:15;13.93;;;8.45;;
15049;SDS011;7622;42.724;23.250;2022-07-23T06:52:42;20.30;;;9.23;;
15049;SDS011;7622;42.724;23.250;2022-07-23T06:55:08;13.68;;;8.90;;
15049;SDS011;7622;42.724;23.250;2022-07-23T06:57:35;10.57;;;8.88;;
15049;SDS011;7622;42.724;23.250;2022-07-23T07:00:03;18.45;;;8.18;;
15049;SDS011;7622;42.724;23.250;2022-07-23T07:02:30;10.07;;;7.60;;
15049;SDS011;7622;42.724;23.250;2022-07-23T07:04:57;12.38;;;8.25;;
15049;SDS011;7622;42.724;23.250;2022-07-23T07:07:25;14.15;;;8.10;;
15049;SDS011;7622;42.724;23.250;2022-07-23T07:09:52;13.60;;;8.27;;
15049;SDS011;7622;42.724;23.250;2022-07-23T07:12:19;8.95;;;8.05;;
15049;SDS011;7622;42.724;23.250;2022-07-23T07:14:45;12.20;;;8.18;;
15049;SDS011;7622;42.724;23.250;2022-07-23T07:17:12;12.75;;;8.10;;
15049;SDS011;7622;42.724;23.250;2022-07-23T07:19:40;9.45;;;7.15;;
15049;SDS011;7622;42.724;23.250;2022-07-23T07:22:07;7.82;;;6.95;;
15049;SDS011;7622;42.724;23.250;2022-07-23T07:24:35;12.73;;;7.80;;
15049;SDS011;7622;42.724;23.250;2022-07-23T07:27:02;15.75;;;7.10;;
15049;SDS011;7622;42.724;23.250;2022-07-23T07:29:29;18.45;;;7.70;;
15049;SDS011;7622;42.724;23.250;2022-07-23T07:31:56;16.73;;;7.60;;
15049;SDS011;7622;42.724;23.250;2022-07-23T07:34:22;10.00;;;6.57;;
15049;SDS011;7622;42.724;23.250;2022-07-23T07:36:49;17.52;;;7.90;;
15049;SDS011;7622;42.724;23.250;2022-07-23T07:39:16;8.93;;;7.95;;
15049;SDS011;7622;42.724;23.250;2022-07-23T07:41:44;9.70;;;7.30;;
15049;SDS011;7622;42.724;23.250;2022-07-23T07:44:11;11.90;;;7.10;;
15049;SDS011;7622;42.724;23.250;2022-07-23T07:46:38;12.05;;;7.80;;
15049;SDS011;7622;42.724;23.250;2022-07-23T07:49:04;9.23;;;7.43;;
15049;SDS011;7622;42.724;23.250;2022-07-23T07:51:31;20.45;;;18.17;;
15049;SDS011;7622;42.724;23.250;2022-07-23T07:53:58;18.73;;;8.98;;
15049;SDS011;7622;42.724;23.250;2022-07-23T07:56:25;7.95;;;7.15;;
15049;SDS011;7622;42.724;23.250;2022-07-23T07:58:53;15.90;;;8.13;;
15049;SDS011;7622;42.724;23.250;2022-07-23T08:01:20;15.63;;;6.95;;
15049;SDS011;7622;42.724;23.250;2022-07-23T08:03:48;14.32;;;7.47;;
15049;SDS011;7622;42.724;23.250;2022-07-23T08:06:17;14.30;;;7.63;;
15049;SDS011;7622;42.724;23.250;2022-07-23T08:08:47;11.20;;;7.45;;
15049;SDS011;7622;42.724;23.250;2022-07-23T08:11:14;15.80;;;7.75;;
15049;SDS011;7622;42.724;23.250;2022-07-23T08:13:40;13.43;;;7.32;;
15049;SDS011;7622;42.724;23.250;2022-07-23T08:16:10;11.60;;;8.25;;
15049;SDS011;7622;42.724;23.250;2022-07-23T08:18:37;14.70;;;8.25;;
15049;SDS011;7622;42.724;23.250;2022-07-23T08:21:04;14.00;;;8.38;;
15049;SDS011;7622;42.724;23.250;2022-07-23T08:23:31;14.93;;;7.88;;
15049;SDS011;7622;42.724;23.250;2022-07-23T08:25:58;25.52;;;9.45;;
15049;SDS011;7622;42.724;23.250;2022-07-23T08:28:26;12.00;;;7.13;;
15049;SDS011;7622;42.724;23.250;2022-07-23T08:30:53;11.25;;;7.35;;
15049;SDS011;7622;42.724;23.250;2022-07-23T08:33:21;17.00;;;7.55;;
15049;SDS011;7622;42.724;23.250;2022-07-23T08:35:48;8.35;;;7.20;;
15049;SDS011;7622;42.724;23.250;2022-07-23T08:38:18;11.50;;;7.50;;
15049;SDS011;7622;42.724;23.250;2022-07-23T08:40:47;8.30;;;7.28;;
15049;SDS011;7622;42.724;23.250;2022-07-23T08:43:16;12.85;;;7.88;;
15049;SDS011;7622;42.724;23.250;2022-07-23T08:45:44;10.68;;;7.95;;
15049;SDS011;7622;42.724;23.250;2022-07-23T08:48:13;12.93;;;7.53;;
15049;SDS011;7622;42.724;23.250;2022-07-23T08:50:44;9.50;;;7.20;;
15049;SDS011;7622;42.724;23.250;2022-07-23T08:53:14;12.20;;;7.75;;
15049;SDS011;7622;42.724;23.250;2022-07-23T08:55:44;15.35;;;7.25;;
15049;SDS011;7622;42.724;23.250;2022-07-23T08:58:12;8.35;;;6.57;;
15049;SDS011;7622;42.724;23.250;2022-07-23T09:00:39;10.20;;;7.57;;
15049;SDS011;7622;42.724;23.250;2022-07-23T09:03:06;13.45;;;7.53;;
15049;SDS011;7622;42.724;23.250;2022-07-23T09:05:33;10.05;;;6.97;;
15049;SDS011;7622;42.724;23.250;2022-07-23T09:08:06;11.52;;;7.13;;
15049;SDS011;7622;42.724;23.250;2022-07-23T09:10:44;13.82;;;7.65;;
15049;SDS011;7622;42.724;23.250;2022-07-23T09:13:26;8.75;;;6.47;;
15049;SDS011;7622;42.724;23.250;2022-07-23T09:15:56;9.88;;;6.75;;
15049;SDS011;7622;42.724;23.250;2022-07-23T09:18:28;9.68;;;6.95;;
15049;SDS011;7622;42.724;23.250;2022-07-23T09:21:05;12.95;;;6.78;;
15049;SDS011;7622;42.724;23.250;2022-07-23T09:23:41;15.43;;;6.50;;
15049;SDS011;7622;42.724;23.250;2022-07-23T09:26:25;13.07;;;6.97;;
15049;SDS011;7622;42.724;23.250;2022-07-23T09:29:03;13.18;;;8.20;;
15049;SDS011;7622;42.724;23.250;2022-07-23T09:31:33;9.68;;;6.55;;
15049;SDS011;7622;42.724;23.250;2022-07-23T09:34:08;16.25;;;7.15;;
15049;SDS011;7622;42.724;23.250;2022-07-23T09:36:36;10.35;;;7.45;;
15049;SDS011;7622;42.724;23.250;2022-07-23T09:39:05;8.52;;;6.75;;
15049;SDS011;7622;42.724;23.250;2022-07-23T09:41:37;11.65;;;6.43;;
15049;SDS011;7622;42.724;23.250;2022-07-23T09:44:09;13.45;;;7.38;;
15049;SDS011;7622;42.724;23.250;2022-07-23T09:46:38;25.58;;;7.38;;
15049;SDS011;7622;42.724;23.250;2022-07-23T09:51:55;10.63;;;6.68;;
15049;SDS011;7622;42.724;23.250;2022-07-23T09:54:25;12.05;;;6.68;;
15049;SDS011;7622;42.724;23.250;2022-07-23T09:56:55;8.85;;;6.68;;
15049;SDS011;7622;42.724;23.250;2022-07-23T09:59:23;6.80;;;5.97;;
15049;SDS011;7622;42.724;23.250;2022-07-23T10:01:52;9.02;;;6.45;;
15049;SDS011;7622;42.724;23.250;2022-07-23T10:04:20;10.27;;;6.45;;
15049;SDS011;7622;42.724;23.250;2022-07-23T10:06:48;11.07;;;6.53;;
15049;SDS011;7622;42.724;23.250;2022-07-23T10:09:20;11.57;;;7.30;;
15049;SDS011;7622;42.724;23.250;2022-07-23T10:11:50;7.93;;;6.38;;
15049;SDS011;7622;42.724;23.250;2022-07-23T10:14:20;10.38;;;6.10;;
15049;SDS011;7622;42.724;23.250;2022-07-23T10:16:47;12.30;;;6.50;;
15049;SDS011;7622;42.724;23.250;2022-07-23T10:19:14;8.00;;;6.25;;
15049;SDS011;7622;42.724;23.250;2022-07-23T10:21:42;8.60;;;5.60;;
15049;SDS011;7622;42.724;23.250;2022-07-23T10:24:16;12.90;;;6.07;;
15049;SDS011;7622;42.724;23.250;2022-07-23T10:26:53;7.25;;;6.35;;
15049;SDS011;7622;42.724;23.250;2022-07-23T10:29:32;10.50;;;6.50;;
15049;SDS011;7622;42.724;23.250;2022-07-23T10:32:08;8.48;;;6.32;;
15049;SDS011;7622;42.724;23.250;2022-07-23T10:34:44;8.43;;;6.32;;
15049;SDS011;7622;42.724;23.250;2022-07-23T10:37:21;12.10;;;5.82;;
15049;SDS011;7622;42.724;23.250;2022-07-23T10:40:08;9.43;;;5.85;;
15049;SDS011;7622;42.724;23.250;2022-07-23T10:42:37;12.57;;;5.78;;
15049;SDS011;7622;42.724;23.250;2022-07-23T10:45:24;5.90;;;5.40;;
15049;SDS011;7622;42.724;23.250;2022-07-23T10:47:54;8.50;;;5.05;;
15049;SDS011;7622;42.724;23.250;2022-07-23T10:50:22;8.02;;;5.45;;
15049;SDS011;7622;42.724;23.250;2022-07-23T10:55:50;12.07;;;6.13;;
15049;SDS011;7622;42.724;23.250;2022-07-23T11:01:32;10.18;;;5.57;;
15049;SDS011;7622;42.724;23.250;2022-07-23T11:04:00;8.88;;;5.43;;
15049;SDS011;7622;42.724;23.250;2022-07-23T11:09:27;10.77;;;5.38;;
15049;SDS011;7622;42.724;23.250;2022-07-23T11:14:59;8.35;;;5.40;;
15049;SDS011;7622;42.724;23.250;2022-07-23T11:17:27;9.75;;;5.93;;
15049;SDS011;7622;42.724;23.250;2022-07-23T11:22:52;12.05;;;5.93;;
15049;SDS011;7622;42.724;23.250;2022-07-23T11:25:29;11.52;;;6.38;;
15049;SDS011;7622;42.724;23.250;2022-07-23T11:28:09;12.05;;;6.63;;
15049;SDS011;7622;42.724;23.250;2022-07-23T11:30:47;8.85;;;6.18;;
15049;SDS011;7622;42.724;23.250;2022-07-23T11:33:20;10.35;;;5.80;;
15049;SDS011;7622;42.724;23.250;2022-07-23T11:35:49;6.57;;;5.72;;
15049;SDS011;7622;42.724;23.250;2022-07-23T11:38:27;8.70;;;5.60;;
15049;SDS011;7622;42.724;23.250;2022-07-23T11:40:57;12.15;;;5.50;;
15049;SDS011;7622;42.724;23.250;2022-07-23T11:43:24;22.30;;;5.63;;
15049;SDS011;7622;42.724;23.250;2022-07-23T11:45:56;11.05;;;5.47;;
15049;SDS011;7622;42.724;23.250;2022-07-23T11:48:25;9.35;;;4.70;;
15049;SDS011;7622;42.724;23.250;2022-07-23T11:50:53;13.38;;;5.10;;
15049;SDS011;7622;42.724;23.250;2022-07-23T11:53:21;11.50;;;4.53;;
15049;SDS011;7622;42.724;23.250;2022-07-23T11:55:49;13.85;;;6.00;;
15049;SDS011;7622;42.724;23.250;2022-07-23T11:58:17;14.07;;;6.55;;
15049;SDS011;7622;42.724;23.250;2022-07-23T12:00:44;15.35;;;5.32;;
15049;SDS011;7622;42.724;23.250;2022-07-23T12:03:12;9.23;;;5.80;;
15049;SDS011;7622;42.724;23.250;2022-07-23T12:05:40;8.82;;;6.32;;
15049;SDS011;7622;42.724;23.250;2022-07-23T12:08:07;14.57;;;6.07;;
15049;SDS011;7622;42.724;23.250;2022-07-23T12:10:36;14.10;;;5.28;;
15049;SDS011;7622;42.724;23.250;2022-07-23T12:13:04;13.32;;;5.43;;
15049;SDS011;7622;42.724;23.250;2022-07-23T12:15:34;16.83;;;5.88;;
15049;SDS011;7622;42.724;23.250;2022-07-23T12:18:04;17.27;;;5.93;;
15049;SDS011;7622;42.724;23.250;2022-07-23T12:20:36;10.20;;;4.97;;
15049;SDS011;7622;42.724;23.250;2022-07-23T12:23:05;18.70;;;6.05;;
15049;SDS011;7622;42.724;23.250;2022-07-23T12:25:34;11.77;;;6.50;;
15049;SDS011;7622;42.724;23.250;2022-07-23T12:28:03;15.85;;;6.70;;
15049;SDS011;7622;42.724;23.250;2022-07-23T12:30:32;15.10;;;5.78;;
15049;SDS011;7622;42.724;23.250;2022-07-23T12:33:00;12.90;;;5.97;;
15049;SDS011;7622;42.724;23.250;2022-07-23T12:35:37;21.00;;;8.38;;
15049;SDS011;7622;42.724;23.250;2022-07-23T12:38:07;8.55;;;5.68;;
15049;SDS011;7622;42.724;23.250;2022-07-23T12:40:35;11.80;;;6.10;;
15049;SDS011;7622;42.724;23.250;2022-07-23T12:43:08;12.15;;;5.47;;
15049;SDS011;7622;42.724;23.250;2022-07-23T12:45:43;10.80;;;5.30;;
15049;SDS011;7622;42.724;23.250;2022-07-23T12:48:18;12.05;;;5.43;;
15049;SDS011;7622;42.724;23.250;2022-07-23T12:50:58;12.25;;;5.45;;
15049;SDS011;7622;42.724;23.250;2022-07-23T12:53:27;8.90;;;5.50;;
15049;SDS011;7622;42.724;23.250;2022-07-23T12:56:00;16.15;;;5.45;;
15049;SDS011;7622;42.724;23.250;2022-07-23T12:58:39;13.98;;;5.30;;
15049;SDS011;7622;42.724;23.250;2022-07-23T13:01:09;6.75;;;5.00;;
15049;SDS011;7622;42.724;23.250;2022-07-23T13:03:37;15.15;;;5.28;;
15049;SDS011;7622;42.724;23.250;2022-07-23T13:06:07;8.73;;;5.03;;
15049;SDS011;7622;42.724;23.250;2022-07-23T13:08:36;9.77;;;5.10;;
15049;SDS011;7622;42.724;23.250;2022-07-23T13:11:05;19.70;;;6.32;;
15049;SDS011;7622;42.724;23.250;2022-07-23T13:13:33;8.07;;;5.00;;
15049;SDS011;7622;42.724;23.250;2022-07-23T13:16:01;10.20;;;5.25;;
15049;SDS011;7622;42.724;23.250;2022-07-23T13:18:29;8.10;;;4.68;;
15049;SDS011;7622;42.724;23.250;2022-07-23T13:20:59;13.85;;;5.05;;
15049;SDS011;7622;42.724;23.250;2022-07-23T13:23:29;15.43;;;5.43;;
15049;SDS011;7622;42.724;23.250;2022-07-23T13:25:56;13.60;;;5.15;;
15049;SDS011;7622;42.724;23.250;2022-07-23T13:28:23;11.73;;;4.85;;
15049;SDS011;7622;42.724;23.250;2022-07-23T13:30:50;15.50;;;4.80;;
15049;SDS011;7622;42.724;23.250;2022-07-23T13:33:18;9.45;;;4.88;;
15049;SDS011;7622;42.724;23.250;2022-07-23T13:35:46;8.18;;;4.60;;
15049;SDS011;7622;42.724;23.250;2022-07-23T13:38:13;9.95;;;4.72;;
15049;SDS011;7622;42.724;23.250;2022-07-23T13:40:42;8.52;;;4.85;;
15049;SDS011;7622;42.724;23.250;2022-07-23T13:43:10;12.18;;;4.93;;
15049;SDS011;7622;42.724;23.250;2022-07-23T13:45:39;11.20;;;4.90;;
15049;SDS011;7622;42.724;23.250;2022-07-23T13:48:07;13.93;;;5.03;;
15049;SDS011;7622;42.724;23.250;2022-07-23T13:50:35;14.82;;;5.63;;
15049;SDS011;7622;42.724;23.250;2022-07-23T13:53:03;11.80;;;4.68;;
15049;SDS011;7622;42.724;23.250;2022-07-23T13:55:30;10.95;;;4.72;;
15049;SDS011;7622;42.724;23.250;2022-07-23T13:57:59;9.40;;;5.22;;
15049;SDS011;7622;42.724;23.250;2022-07-23T14:00:27;8.77;;;4.78;;
15049;SDS011;7622;42.724;23.250;2022-07-23T14:02:55;7.20;;;4.88;;
15049;SDS011;7622;42.724;23.250;2022-07-23T14:05:22;9.60;;;4.60;;
15049;SDS011;7622;42.724;23.250;2022-07-23T14:07:49;10.32;;;5.20;;
15049;SDS011;7622;42.724;23.250;2022-07-23T14:10:17;6.43;;;4.50;;
15049;SDS011;7622;42.724;23.250;2022-07-23T14:12:44;12.30;;;4.82;;
15049;SDS011;7622;42.724;23.250;2022-07-23T14:15:13;9.02;;;4.50;;
15049;SDS011;7622;42.724;23.250;2022-07-23T14:17:41;15.25;;;5.63;;
15049;SDS011;7622;42.724;23.250;2022-07-23T14:20:10;9.60;;;5.10;;
15049;SDS011;7622;42.724;23.250;2022-07-23T14:22:38;16.52;;;5.65;;
15049;SDS011;7622;42.724;23.250;2022-07-23T14:25:06;10.32;;;4.53;;
15049;SDS011;7622;42.724;23.250;2022-07-23T14:27:34;13.10;;;5.55;;
15049;SDS011;7622;42.724;23.250;2022-07-23T14:30:02;9.40;;;4.65;;
15049;SDS011;7622;42.724;23.250;2022-07-23T14:32:31;11.77;;;4.95;;
15049;SDS011;7622;42.724;23.250;2022-07-23T14:34:58;14.85;;;5.60;;
15049;SDS011;7622;42.724;23.250;2022-07-23T14:37:25;9.60;;;5.57;;
15049;SDS011;7622;42.724;23.250;2022-07-23T14:39:52;5.95;;;5.32;;
15049;SDS011;7622;42.724;23.250;2022-07-23T14:42:19;10.18;;;4.70;;
15049;SDS011;7622;42.724;23.250;2022-07-23T14:44:45;11.45;;;4.47;;
15049;SDS011;7622;42.724;23.250;2022-07-23T14:47:12;8.43;;;5.10;;
15049;SDS011;7622;42.724;23.250;2022-07-23T14:49:40;8.15;;;4.88;;
15049;SDS011;7622;42.724;23.250;2022-07-23T14:52:07;7.95;;;4.72;;
15049;SDS011;7622;42.724;23.250;2022-07-23T14:54:34;11.82;;;5.03;;
15049;SDS011;7622;42.724;23.250;2022-07-23T14:57:01;12.77;;;5.90;;
15049;SDS011;7622;42.724;23.250;2022-07-23T14:59:28;11.98;;;5.53;;
15049;SDS011;7622;42.724;23.250;2022-07-23T15:01:56;12.32;;;5.68;;
15049;SDS011;7622;42.724;23.250;2022-07-23T15:04:23;9.13;;;5.20;;